createdAt,value
2019-03-26T00:00:36.208Z,6.50
2019-03-26T00:05:41.571Z,6.50
2019-03-26T00:10:47.623Z,6.50
2019-03-26T00:15:53.306Z,6.50
2019-03-26T00:20:59.004Z,6.40
2019-03-26T00:26:04.688Z,6.40
2019-03-26T00:31:10.049Z,6.40
2019-03-26T00:36:15.761Z,6.50
2019-03-26T00:41:21.481Z,6.50
2019-03-26T00:46:27.422Z,6.50
2019-03-26T00:51:33.420Z,6.60
2019-03-26T00:56:38.818Z,6.80
2019-03-26T01:01:44.554Z,6.60
2019-03-26T01:06:49.923Z,6.50
2019-03-26T01:11:55.754Z,6.50
2019-03-26T01:17:01.493Z,6.60
2019-03-26T01:22:06.882Z,6.70
2019-03-26T01:27:12.465Z,6.60
2019-03-26T01:32:17.952Z,6.50
2019-03-26T01:37:23.542Z,6.40
2019-03-26T01:42:29.238Z,6.40
2019-03-26T01:47:34.581Z,6.60
2019-03-26T01:52:40.305Z,6.90
2019-03-26T01:57:45.733Z,6.90
2019-03-26T02:02:51.487Z,6.90
2019-03-26T02:07:56.987Z,6.90
2019-03-26T02:13:02.719Z,6.70
2019-03-26T02:18:08.219Z,6.80
2019-03-26T02:23:14.131Z,6.70
2019-03-26T02:28:19.548Z,6.80
2019-03-26T02:33:25.062Z,7.10
2019-03-26T02:38:31.266Z,6.90
2019-03-26T02:43:36.946Z,7.00
2019-03-26T02:48:42.679Z,6.90
2019-03-26T02:53:48.175Z,6.80
2019-03-26T02:58:54.259Z,7.10
2019-03-26T03:04:00.007Z,7.10
2019-03-26T03:09:06.543Z,7.20
2019-03-26T03:14:12.150Z,7.10
2019-03-26T03:19:17.592Z,6.90
2019-03-26T03:24:23.277Z,7.00
2019-03-26T03:29:28.901Z,6.90
2019-03-26T03:34:34.617Z,7.00
2019-03-26T03:39:40.362Z,6.90
2019-03-26T03:44:45.900Z,6.90
2019-03-26T03:49:51.757Z,6.70
2019-03-26T03:54:57.550Z,6.90
2019-03-26T04:00:05.077Z,6.80
2019-03-26T04:05:10.568Z,6.80
2019-03-26T04:10:16.275Z,6.90
2019-03-26T04:15:21.845Z,7.00
2019-03-26T04:20:27.523Z,6.90
2019-03-26T04:25:32.962Z,6.90
2019-03-26T04:30:38.494Z,6.80
2019-03-26T04:35:44.171Z,7.00
2019-03-26T04:40:50.597Z,6.90
2019-03-26T04:45:56.374Z,7.00
2019-03-26T04:51:02.724Z,6.80
2019-03-26T04:56:08.102Z,6.90
2019-03-26T05:01:14.100Z,7.00
2019-03-26T05:06:19.949Z,6.90
2019-03-26T05:11:25.726Z,6.90
2019-03-26T05:16:31.636Z,7.00
2019-03-26T05:21:37.068Z,6.90
2019-03-26T05:26:42.819Z,6.90
2019-03-26T05:31:48.533Z,6.90
2019-03-26T05:36:54.171Z,7.00
2019-03-26T05:41:59.942Z,7.10
2019-03-26T05:47:05.509Z,7.00
2019-03-26T05:52:10.976Z,6.80
2019-03-26T05:57:17.085Z,7.00
2019-03-26T06:02:25.545Z,7.10
2019-03-26T06:07:31.464Z,6.90
2019-03-26T06:12:37.136Z,6.80
2019-03-26T06:17:42.927Z,6.90
2019-03-26T06:22:48.616Z,7.00
2019-03-26T06:27:53.998Z,7.30
2019-03-26T06:32:59.717Z,7.10
2019-03-26T06:38:05.385Z,6.90
2019-03-26T06:43:11.334Z,6.80
2019-03-26T06:48:16.768Z,6.90
2019-03-26T06:53:23.983Z,7.10
2019-03-26T06:58:29.761Z,7.00
2019-03-26T07:03:35.545Z,7.00
2019-03-26T07:08:40.961Z,7.00
2019-03-26T07:13:46.656Z,7.00
2019-03-26T07:18:52.053Z,7.10
2019-03-26T07:23:57.726Z,7.00
2019-03-26T07:29:03.192Z,7.10
2019-03-26T07:34:08.728Z,7.30
2019-03-26T07:39:14.445Z,7.30
2019-03-26T07:44:20.233Z,7.20
2019-03-26T07:49:26.271Z,7.10
2019-03-26T07:54:32.733Z,7.10
2019-03-26T07:59:38.509Z,6.90
2019-03-26T08:04:44.186Z,7.00
2019-03-26T08:09:49.717Z,7.10
2019-03-26T08:14:55.167Z,7.20
2019-03-26T08:20:01.143Z,7.50
2019-03-26T08:25:07.334Z,7.60
2019-03-26T08:30:12.797Z,7.50
2019-03-26T08:35:18.154Z,7.80
2019-03-26T08:40:23.653Z,8.00
2019-03-26T08:45:29.218Z,8.10
2019-03-26T08:50:35.803Z,8.20
2019-03-26T08:55:41.406Z,8.40
2019-03-26T09:00:47.169Z,8.30
2019-03-26T09:05:52.687Z,8.20
2019-03-26T09:10:58.573Z,8.20
2019-03-26T09:16:04.641Z,8.20
2019-03-26T09:21:10.321Z,8.30
2019-03-26T09:26:16.059Z,8.20
2019-03-26T09:31:21.679Z,8.10
2019-03-26T09:36:27.438Z,8.20
2019-03-26T09:41:32.934Z,7.80
2019-03-26T09:46:38.635Z,8.00
2019-03-26T09:51:45.565Z,8.00
2019-03-26T09:56:51.366Z,8.20
2019-03-26T10:01:57.282Z,8.30
2019-03-26T10:07:02.858Z,8.70
2019-03-26T10:12:08.373Z,8.70
2019-03-26T10:17:14.158Z,8.50
2019-03-26T10:22:20.151Z,9.00
2019-03-26T10:27:26.046Z,9.00
2019-03-26T10:32:31.954Z,8.90
2019-03-26T10:37:37.951Z,8.60
2019-03-26T10:42:43.716Z,8.50
2019-03-26T10:47:49.741Z,8.70
2019-03-26T10:52:55.237Z,8.80
2019-03-26T10:58:00.822Z,8.80
2019-03-26T11:03:07.489Z,8.90
2019-03-26T11:08:13.435Z,8.80
2019-03-26T11:13:19.136Z,9.10
2019-03-26T11:18:25.471Z,8.90
2019-03-26T11:23:31.242Z,9.00
2019-03-26T11:28:36.859Z,8.90
2019-03-26T11:33:42.935Z,9.70
2019-03-26T11:38:48.800Z,9.60
2019-03-26T11:43:54.313Z,9.00
2019-03-26T11:49:00.182Z,9.10
2019-03-26T11:54:06.081Z,9.40
2019-03-26T11:59:11.588Z,9.40
2019-03-26T12:04:17.722Z,9.60
2019-03-26T12:09:23.459Z,9.80
2019-03-26T12:14:28.992Z,9.70
2019-03-26T12:19:34.617Z,10.00
2019-03-26T12:24:40.714Z,9.80
2019-03-26T12:29:46.617Z,10.00
2019-03-26T12:34:53.277Z,9.90
2019-03-26T12:40:00.621Z,9.60
2019-03-26T12:45:07.374Z,9.50
2019-03-26T12:50:13.445Z,9.60
2019-03-26T12:55:19.726Z,10.20
2019-03-26T13:00:31.754Z,10.00
2019-03-26T13:05:37.328Z,9.90
2019-03-26T13:10:52.818Z,10.00
2019-03-26T13:15:50.785Z,10.00
2019-03-26T13:20:56.707Z,10.10
2019-03-26T13:26:02.489Z,10.00
2019-03-26T13:31:08.655Z,9.80
2019-03-26T13:36:14.578Z,9.80
2019-03-26T13:41:20.989Z,9.70
2019-03-26T13:46:26.746Z,9.40
2019-03-26T13:51:32.550Z,9.40
2019-03-26T13:56:39.202Z,9.60
2019-03-26T14:01:45.713Z,9.70
2019-03-26T14:06:52.651Z,10.00
2019-03-26T14:11:59.130Z,9.60
2019-03-26T14:17:05.874Z,9.60
2019-03-26T14:22:11.962Z,9.70
2019-03-26T14:27:17.664Z,9.80
2019-03-26T14:32:23.545Z,9.70
2019-03-26T14:37:28.914Z,9.90
2019-03-26T14:42:35.276Z,9.70
2019-03-26T14:47:41.044Z,9.80
2019-03-26T14:52:46.783Z,9.90
2019-03-26T14:57:52.511Z,9.70
2019-03-26T15:02:57.969Z,9.70
2019-03-26T15:08:03.809Z,9.90
2019-03-26T15:13:09.807Z,9.60
2019-03-26T15:18:15.405Z,9.70
2019-03-26T15:23:21.255Z,9.60
2019-03-26T15:28:26.806Z,9.60
2019-03-26T15:33:33.862Z,9.60
2019-03-26T15:38:40.001Z,9.70
2019-03-26T15:43:45.432Z,9.50
2019-03-26T15:48:51.125Z,9.50
2019-03-26T15:53:56.566Z,9.70
2019-03-26T15:59:02.178Z,9.70
2019-03-26T16:04:08.215Z,9.80
2019-03-26T16:09:13.649Z,9.70
2019-03-26T16:14:19.174Z,9.60
2019-03-26T16:19:32.034Z,9.70
2019-03-26T16:24:34.418Z,9.60
2019-03-26T16:29:40.165Z,9.70
2019-03-26T16:34:46.233Z,9.80
2019-03-26T16:39:52.038Z,9.70
2019-03-26T16:44:57.483Z,9.70
2019-03-26T16:50:03.096Z,9.60
2019-03-26T16:55:08.809Z,9.60
2019-03-26T17:00:15.406Z,9.60
2019-03-26T17:05:26.400Z,9.50
2019-03-26T17:10:31.897Z,9.60
2019-03-26T17:15:37.329Z,9.60
2019-03-26T17:20:43.628Z,9.50
2019-03-26T17:25:49.164Z,9.50
2019-03-26T17:30:55.176Z,9.50
2019-03-26T17:36:00.773Z,9.50
2019-03-26T17:41:06.515Z,9.40
2019-03-26T17:46:11.924Z,9.50
2019-03-26T17:51:17.867Z,9.60
2019-03-26T17:56:23.668Z,9.30
2019-03-26T18:01:29.161Z,9.30
2019-03-26T18:06:34.901Z,9.50
2019-03-26T18:11:40.621Z,9.50
2019-03-26T18:16:46.242Z,9.50
2019-03-26T18:21:52.120Z,9.50
2019-03-26T18:26:57.991Z,9.50
2019-03-26T18:32:03.604Z,9.50
2019-03-26T18:37:09.213Z,9.40
2019-03-26T18:42:14.635Z,9.40
2019-03-26T18:47:20.244Z,9.40
2019-03-26T18:52:25.703Z,9.50
2019-03-26T18:57:31.540Z,9.40
2019-03-26T19:02:37.208Z,9.40
2019-03-26T19:07:42.650Z,9.50
2019-03-26T19:12:56.797Z,9.50
2019-03-26T19:17:55.534Z,9.50
2019-03-26T19:23:01.773Z,9.50
2019-03-26T19:28:07.310Z,9.40
2019-03-26T19:33:13.137Z,9.40
2019-03-26T19:38:19.574Z,9.40
2019-03-26T19:43:25.145Z,9.30
2019-03-26T19:48:31.346Z,9.40
2019-03-26T19:53:36.844Z,9.30
2019-03-26T19:58:42.578Z,9.30
2019-03-26T20:03:47.912Z,9.30
2019-03-26T20:08:53.342Z,9.30
2019-03-26T20:13:59.085Z,9.30
2019-03-26T20:19:04.526Z,9.30
2019-03-26T20:24:10.048Z,9.10
2019-03-26T20:29:15.645Z,11.80
2019-03-26T20:34:21.290Z,9.10
2019-03-26T20:39:26.902Z,9.10
2019-03-26T20:44:32.953Z,9.10
2019-03-26T20:49:38.901Z,9.10
2019-03-26T20:54:44.502Z,9.10
2019-03-26T20:59:50.181Z,9.10
2019-03-26T21:04:56.025Z,9.10
2019-03-26T21:10:01.574Z,9.20
2019-03-26T21:15:08.581Z,9.00
2019-03-26T21:20:14.606Z,9.10
2019-03-26T21:25:20.373Z,8.90
2019-03-26T21:30:25.896Z,8.90
2019-03-26T21:35:31.586Z,8.90
2019-03-26T21:40:37.260Z,8.90
2019-03-26T21:45:42.756Z,8.90
2019-03-26T21:50:48.345Z,8.90
2019-03-26T21:56:05.876Z,8.80
2019-03-26T22:01:01.453Z,8.90
2019-03-26T22:06:06.861Z,8.90
2019-03-26T22:11:12.448Z,8.80
2019-03-26T22:16:17.878Z,8.90
2019-03-26T22:21:23.247Z,8.80
2019-03-26T22:26:28.865Z,8.80
2019-03-26T22:31:34.318Z,8.80
2019-03-26T22:36:40.425Z,8.80
2019-03-26T22:41:45.894Z,8.80
2019-03-26T22:46:51.316Z,8.80
2019-03-26T22:51:57.085Z,8.70
2019-03-26T22:57:02.764Z,8.50
2019-03-26T23:02:08.698Z,8.60
2019-03-26T23:07:14.025Z,8.70
2019-03-26T23:12:19.620Z,8.70
2019-03-26T23:17:25.677Z,8.60
2019-03-26T23:22:31.895Z,8.60
2019-03-26T23:27:37.346Z,8.70
2019-03-26T23:32:43.062Z,8.70
2019-03-26T23:37:48.441Z,8.70
2019-03-26T23:42:54.118Z,8.70
2019-03-26T23:47:59.789Z,8.50
2019-03-26T23:53:05.183Z,8.50
2019-03-26T23:58:10.610Z,8.50
